sensor_id;sensor_type;location;lat;lon;timestamp;P1;durP1;ratioP1;P2;durP2;ratioP2
6902;SDS011;20232;49.408;8.702;2022-11-15T05:02:12;6.90;;;6.27;;
6902;SDS011;20232;49.408;8.702;2022-11-15T05:04:38;6.67;;;5.87;;
6902;SDS011;20232;49.408;8.702;2022-11-15T05:07:04;6.70;;;6.00;;
6902;SDS011;20232;49.408;8.702;2022-11-15T05:09:29;6.53;;;5.87;;
6902;SDS011;20232;49.408;8.702;2022-11-15T05:11:55;6.53;;;5.80;;
6902;SDS011;20232;49.408;8.702;2022-11-15T05:14:20;7.60;;;5.80;;
6902;SDS011;20232;49.408;8.702;2022-11-15T05:16:46;7.00;;;5.93;;
6902;SDS011;20232;49.408;8.702;2022-11-15T05:19:12;6.90;;;6.30;;
6902;SDS011;20232;49.408;8.702;2022-11-15T05:21:37;6.57;;;5.90;;
6902;SDS011;20232;49.408;8.702;2022-11-15T05:24:04;6.70;;;6.10;;
6902;SDS011;20232;49.408;8.702;2022-11-15T05:26:30;7.70;;;6.40;;
6902;SDS011;20232;49.408;8.702;2022-11-15T05:28:56;6.87;;;6.17;;
6902;SDS011;20232;49.408;8.702;2022-11-15T05:31:23;7.77;;;6.37;;
6902;SDS011;20232;49.408;8.702;2022-11-15T05:33:49;8.40;;;6.20;;
6902;SDS011;20232;49.408;8.702;2022-11-15T05:36:25;6.13;;;5.60;;
6902;SDS011;20232;49.408;8.702;2022-11-15T05:38:52;6.30;;;5.70;;
6902;SDS011;20232;49.408;8.702;2022-11-15T05:41:18;6.80;;;5.50;;
6902;SDS011;20232;49.408;8.702;2022-11-15T05:43:47;6.83;;;5.87;;
6902;SDS011;20232;49.408;8.702;2022-11-15T05:46:14;6.30;;;5.70;;
6902;SDS011;20232;49.408;8.702;2022-11-15T05:48:41;6.60;;;5.80;;
6902;SDS011;20232;49.408;8.702;2022-11-15T05:51:09;8.27;;;6.17;;
6902;SDS011;20232;49.408;8.702;2022-11-15T05:53:35;6.60;;;5.97;;
6902;SDS011;20232;49.408;8.702;2022-11-15T05:56:02;7.87;;;6.20;;
6902;SDS011;20232;49.408;8.702;2022-11-15T05:58:30;6.30;;;5.80;;
6902;SDS011;20232;49.408;8.702;2022-11-15T06:00:58;7.37;;;6.20;;
6902;SDS011;20232;49.408;8.702;2022-11-15T06:03:25;6.80;;;6.10;;
6902;SDS011;20232;49.408;8.702;2022-11-15T06:05:50;7.13;;;5.90;;
6902;SDS011;20232;49.408;8.702;2022-11-15T06:08:16;6.33;;;5.57;;
6902;SDS011;20232;49.408;8.702;2022-11-15T06:10:41;7.20;;;5.80;;
6902;SDS011;20232;49.408;8.702;2022-11-15T06:13:07;6.67;;;5.80;;
6902;SDS011;20232;49.408;8.702;2022-11-15T06:15:32;9.03;;;5.83;;
6902;SDS011;20232;49.408;8.702;2022-11-15T06:17:59;7.03;;;5.57;;
6902;SDS011;20232;49.408;8.702;2022-11-15T06:20:26;5.83;;;5.23;;
6902;SDS011;20232;49.408;8.702;2022-11-15T06:22:59;7.43;;;6.13;;
6902;SDS011;20232;49.408;8.702;2022-11-15T06:25:26;7.03;;;6.43;;
6902;SDS011;20232;49.408;8.702;2022-11-15T06:27:52;6.90;;;6.30;;
6902;SDS011;20232;49.408;8.702;2022-11-15T06:30:19;8.50;;;6.20;;
6902;SDS011;20232;49.408;8.702;2022-11-15T06:32:45;6.30;;;5.70;;
6902;SDS011;20232;49.408;8.702;2022-11-15T06:35:11;7.33;;;6.43;;
6902;SDS011;20232;49.408;8.702;2022-11-15T06:37:37;6.50;;;5.90;;
6902;SDS011;20232;49.408;8.702;2022-11-15T06:40:03;8.40;;;6.33;;
6902;SDS011;20232;49.408;8.702;2022-11-15T06:42:28;7.03;;;5.97;;
6902;SDS011;20232;49.408;8.702;2022-11-15T06:44:54;8.50;;;6.07;;
6902;SDS011;20232;49.408;8.702;2022-11-15T06:47:20;7.00;;;6.30;;
6902;SDS011;20232;49.408;8.702;2022-11-15T06:49:45;9.27;;;6.90;;
6902;SDS011;20232;49.408;8.702;2022-11-15T06:52:11;9.23;;;7.53;;
6902;SDS011;20232;49.408;8.702;2022-11-15T06:54:36;7.40;;;6.37;;
6902;SDS011;20232;49.408;8.702;2022-11-15T06:57:03;8.37;;;6.47;;
6902;SDS011;20232;49.408;8.702;2022-11-15T06:59:29;8.03;;;6.20;;
6902;SDS011;20232;49.408;8.702;2022-11-15T07:01:55;6.23;;;5.63;;
6902;SDS011;20232;49.408;8.702;2022-11-15T07:04:20;9.53;;;6.20;;
6902;SDS011;20232;49.408;8.702;2022-11-15T07:06:49;7.53;;;6.33;;
6902;SDS011;20232;49.408;8.702;2022-11-15T07:09:14;6.63;;;5.87;;
6902;SDS011;20232;49.408;8.702;2022-11-15T07:11:40;6.83;;;6.03;;
6902;SDS011;20232;49.408;8.702;2022-11-15T07:14:05;8.23;;;6.40;;
6902;SDS011;20232;49.408;8.702;2022-11-15T07:16:31;6.90;;;6.13;;
6902;SDS011;20232;49.408;8.702;2022-11-15T07:18:57;9.50;;;6.40;;
6902;SDS011;20232;49.408;8.702;2022-11-15T07:21:22;8.73;;;6.23;;
6902;SDS011;20232;49.408;8.702;2022-11-15T07:23:48;6.90;;;5.97;;
6902;SDS011;20232;49.408;8.702;2022-11-15T07:26:14;6.30;;;5.70;;
6902;SDS011;20232;49.408;8.702;2022-11-15T07:28:39;6.63;;;5.70;;
6902;SDS011;20232;49.408;8.702;2022-11-15T07:31:07;7.43;;;6.30;;
6902;SDS011;20232;49.408;8.702;2022-11-15T07:33:33;7.23;;;6.07;;
6902;SDS011;20232;49.408;8.702;2022-11-15T07:36:00;7.20;;;5.90;;
6902;SDS011;20232;49.408;8.702;2022-11-15T07:38:29;7.23;;;5.80;;
6902;SDS011;20232;49.408;8.702;2022-11-15T07:40:58;6.33;;;5.80;;
6902;SDS011;20232;49.408;8.702;2022-11-15T07:43:25;8.23;;;6.10;;
6902;SDS011;20232;49.408;8.702;2022-11-15T07:45:52;7.00;;;5.50;;
6902;SDS011;20232;49.408;8.702;2022-11-15T07:48:18;8.50;;;5.40;;
6902;SDS011;20232;49.408;8.702;2022-11-15T07:50:44;8.93;;;5.33;;
6902;SDS011;20232;49.408;8.702;2022-11-15T07:53:10;7.50;;;4.93;;
6902;SDS011;20232;49.408;8.702;2022-11-15T07:55:36;8.13;;;5.27;;
6902;SDS011;20232;49.408;8.702;2022-11-15T07:58:02;6.73;;;5.17;;
6902;SDS011;20232;49.408;8.702;2022-11-15T08:00:33;6.20;;;5.43;;
6902;SDS011;20232;49.408;8.702;2022-11-15T08:03:06;6.20;;;4.77;;
6902;SDS011;20232;49.408;8.702;2022-11-15T08:05:34;5.33;;;4.83;;
6902;SDS011;20232;49.408;8.702;2022-11-15T08:08:01;7.60;;;4.67;;
6902;SDS011;20232;49.408;8.702;2022-11-15T08:10:28;6.03;;;4.97;;
6902;SDS011;20232;49.408;8.702;2022-11-15T08:12:59;7.60;;;5.20;;
6902;SDS011;20232;49.408;8.702;2022-11-15T08:15:26;6.70;;;5.00;;
6902;SDS011;20232;49.408;8.702;2022-11-15T08:17:58;7.20;;;4.80;;
6902;SDS011;20232;49.408;8.702;2022-11-15T08:20:26;5.53;;;4.90;;
6902;SDS011;20232;49.408;8.702;2022-11-15T08:22:58;5.50;;;4.80;;
6902;SDS011;20232;49.408;8.702;2022-11-15T08:25:25;6.03;;;4.50;;
6902;SDS011;20232;49.408;8.702;2022-11-15T08:27:52;7.57;;;5.00;;
6902;SDS011;20232;49.408;8.702;2022-11-15T08:30:21;7.00;;;4.53;;
6902;SDS011;20232;49.408;8.702;2022-11-15T08:32:50;6.33;;;4.60;;
6902;SDS011;20232;49.408;8.702;2022-11-15T08:35:17;5.83;;;4.97;;
6902;SDS011;20232;49.408;8.702;2022-11-15T08:37:43;8.60;;;5.13;;
6902;SDS011;20232;49.408;8.702;2022-11-15T08:40:09;7.97;;;5.53;;
6902;SDS011;20232;49.408;8.702;2022-11-15T08:42:35;10.10;;;5.13;;
6902;SDS011;20232;49.408;8.702;2022-11-15T08:45:01;6.53;;;4.83;;
6902;SDS011;20232;49.408;8.702;2022-11-15T08:47:27;6.63;;;5.10;;
6902;SDS011;20232;49.408;8.702;2022-11-15T08:49:53;8.67;;;5.40;;
6902;SDS011;20232;49.408;8.702;2022-11-15T08:52:19;7.83;;;5.53;;
6902;SDS011;20232;49.408;8.702;2022-11-15T08:54:44;7.07;;;5.00;;
6902;SDS011;20232;49.408;8.702;2022-11-15T08:57:10;7.13;;;5.00;;
6902;SDS011;20232;49.408;8.702;2022-11-15T08:59:36;5.43;;;4.90;;
6902;SDS011;20232;49.408;8.702;2022-11-15T09:02:01;5.20;;;4.73;;
6902;SDS011;20232;49.408;8.702;2022-11-15T09:04:27;8.30;;;5.23;;
6902;SDS011;20232;49.408;8.702;2022-11-15T09:06:53;8.23;;;5.33;;
6902;SDS011;20232;49.408;8.702;2022-11-15T09:09:19;8.13;;;5.13;;
6902;SDS011;20232;49.408;8.702;2022-11-15T09:11:44;6.03;;;4.83;;
6902;SDS011;20232;49.408;8.702;2022-11-15T09:14:10;6.87;;;4.97;;
6902;SDS011;20232;49.408;8.702;2022-11-15T09:16:37;5.53;;;4.87;;
6902;SDS011;20232;49.408;8.702;2022-11-15T09:19:03;7.50;;;5.03;;
6902;SDS011;20232;49.408;8.702;2022-11-15T09:21:29;5.23;;;4.73;;
6902;SDS011;20232;49.408;8.702;2022-11-15T09:23:55;6.60;;;4.77;;
6902;SDS011;20232;49.408;8.702;2022-11-15T09:26:20;5.13;;;4.50;;
6902;SDS011;20232;49.408;8.702;2022-11-15T09:28:46;6.70;;;4.70;;
6902;SDS011;20232;49.408;8.702;2022-11-15T09:31:12;23.60;;;14.50;;
6902;SDS011;20232;49.408;8.702;2022-11-15T09:33:37;20.17;;;9.83;;
6902;SDS011;20232;49.408;8.702;2022-11-15T09:36:05;12.00;;;7.67;;
6902;SDS011;20232;49.408;8.702;2022-11-15T09:38:32;25.73;;;15.23;;
6902;SDS011;20232;49.408;8.702;2022-11-15T09:49:00;25.03;;;14.77;;
6902;SDS011;20232;49.408;8.702;2022-11-15T09:51:29;37.20;;;23.00;;
6902;SDS011;20232;49.408;8.702;2022-11-15T09:54:13;17.03;;;10.80;;
6902;SDS011;20232;49.408;8.702;2022-11-15T10:00:08;13.87;;;7.37;;
6902;SDS011;20232;49.408;8.702;2022-11-15T10:05:38;10.80;;;5.13;;
6902;SDS011;20232;49.408;8.702;2022-11-15T10:08:24;5.57;;;4.43;;
6902;SDS011;20232;49.408;8.702;2022-11-15T10:11:20;8.50;;;5.63;;
6902;SDS011;20232;49.408;8.702;2022-11-15T10:13:47;5.67;;;4.37;;
6902;SDS011;20232;49.408;8.702;2022-11-15T10:19:07;5.70;;;3.93;;
6902;SDS011;20232;49.408;8.702;2022-11-15T10:24:25;7.13;;;3.93;;
6902;SDS011;20232;49.408;8.702;2022-11-15T10:26:55;5.20;;;3.67;;
6902;SDS011;20232;49.408;8.702;2022-11-15T10:29:22;5.43;;;3.77;;
6902;SDS011;20232;49.408;8.702;2022-11-15T10:31:49;4.83;;;3.63;;
6902;SDS011;20232;49.408;8.702;2022-11-15T10:34:16;5.63;;;4.17;;
6902;SDS011;20232;49.408;8.702;2022-11-15T10:36:44;4.37;;;3.97;;
6902;SDS011;20232;49.408;8.702;2022-11-15T10:39:12;4.90;;;3.57;;
6902;SDS011;20232;49.408;8.702;2022-11-15T10:41:39;5.47;;;3.30;;
6902;SDS011;20232;49.408;8.702;2022-11-15T10:46:33;4.23;;;3.30;;
6902;SDS011;20232;49.408;8.702;2022-11-15T10:49:13;3.90;;;2.97;;
6902;SDS011;20232;49.408;8.702;2022-11-15T10:54:27;3.87;;;3.50;;
6902;SDS011;20232;49.408;8.702;2022-11-15T10:56:54;3.53;;;3.23;;
6902;SDS011;20232;49.408;8.702;2022-11-15T10:59:27;5.70;;;3.30;;
6902;SDS011;20232;49.408;8.702;2022-11-15T11:01:55;3.80;;;3.30;;
6902;SDS011;20232;49.408;8.702;2022-11-15T11:04:21;3.70;;;3.30;;
6902;SDS011;20232;49.408;8.702;2022-11-15T11:06:57;4.33;;;3.30;;
6902;SDS011;20232;49.408;8.702;2022-11-15T11:12:03;4.47;;;3.40;;
6902;SDS011;20232;49.408;8.702;2022-11-15T11:14:31;4.93;;;3.63;;
6902;SDS011;20232;49.408;8.702;2022-11-15T11:19:45;3.57;;;3.27;;
6902;SDS011;20232;49.408;8.702;2022-11-15T11:22:17;6.70;;;3.33;;
6902;SDS011;20232;49.408;8.702;2022-11-15T11:25:04;5.03;;;3.90;;
6902;SDS011;20232;49.408;8.702;2022-11-15T11:32:49;5.27;;;3.23;;
6902;SDS011;20232;49.408;8.702;2022-11-15T11:35:22;4.03;;;3.13;;
6902;SDS011;20232;49.408;8.702;2022-11-15T11:38:15;5.50;;;3.20;;
6902;SDS011;20232;49.408;8.702;2022-11-15T11:41:14;4.73;;;3.40;;
6902;SDS011;20232;49.408;8.702;2022-11-15T11:44:14;6.20;;;3.30;;
6902;SDS011;20232;49.408;8.702;2022-11-15T11:46:47;5.80;;;3.70;;
6902;SDS011;20232;49.408;8.702;2022-11-15T11:52:01;4.73;;;3.20;;
6902;SDS011;20232;49.408;8.702;2022-11-15T11:54:34;3.17;;;2.87;;
6902;SDS011;20232;49.408;8.702;2022-11-15T11:57:03;4.70;;;3.20;;
6902;SDS011;20232;49.408;8.702;2022-11-15T11:59:36;3.97;;;3.10;;
6902;SDS011;20232;49.408;8.702;2022-11-15T12:02:11;4.43;;;3.77;;
6902;SDS011;20232;49.408;8.702;2022-11-15T12:04:39;5.57;;;4.57;;
6902;SDS011;20232;49.408;8.702;2022-11-15T12:07:27;4.47;;;3.50;;
6902;SDS011;20232;49.408;8.702;2022-11-15T12:12:41;4.73;;;2.97;;
6902;SDS011;20232;49.408;8.702;2022-11-15T12:17:34;4.47;;;3.10;;
6902;SDS011;20232;49.408;8.702;2022-11-15T12:20:04;4.60;;;2.90;;
6902;SDS011;20232;49.408;8.702;2022-11-15T12:25:29;3.40;;;2.90;;
6902;SDS011;20232;49.408;8.702;2022-11-15T12:28:01;5.37;;;2.90;;
6902;SDS011;20232;49.408;8.702;2022-11-15T12:33:34;4.47;;;2.93;;
6902;SDS011;20232;49.408;8.702;2022-11-15T12:36:09;3.50;;;2.90;;
6902;SDS011;20232;49.408;8.702;2022-11-15T12:41:16;12.17;;;3.93;;
6902;SDS011;20232;49.408;8.702;2022-11-15T12:43:44;7.10;;;3.20;;
6902;SDS011;20232;49.408;8.702;2022-11-15T12:46:12;4.13;;;3.30;;
6902;SDS011;20232;49.408;8.702;2022-11-15T12:51:04;4.37;;;3.33;;
6902;SDS011;20232;49.408;8.702;2022-11-15T12:53:30;4.17;;;3.57;;
6902;SDS011;20232;49.408;8.702;2022-11-15T13:04:08;6.47;;;4.20;;
6902;SDS011;20232;49.408;8.702;2022-11-15T13:06:49;7.90;;;4.43;;
6902;SDS011;20232;49.408;8.702;2022-11-15T13:11:57;5.70;;;3.50;;
6902;SDS011;20232;49.408;8.702;2022-11-15T13:17:02;7.10;;;3.63;;
6902;SDS011;20232;49.408;8.702;2022-11-15T13:19:37;4.33;;;2.93;;
6902;SDS011;20232;49.408;8.702;2022-11-15T13:22:04;7.03;;;3.53;;
6902;SDS011;20232;49.408;8.702;2022-11-15T13:24:52;3.37;;;3.00;;
6902;SDS011;20232;49.408;8.702;2022-11-15T13:27:18;4.73;;;3.10;;
6902;SDS011;20232;49.408;8.702;2022-11-15T13:29:45;3.33;;;3.03;;
6902;SDS011;20232;49.408;8.702;2022-11-15T13:32:13;4.43;;;3.00;;
6902;SDS011;20232;49.408;8.702;2022-11-15T13:34:44;4.30;;;3.13;;
6902;SDS011;20232;49.408;8.702;2022-11-15T13:39:47;5.13;;;3.00;;
6902;SDS011;20232;49.408;8.702;2022-11-15T13:42:18;3.77;;;3.00;;
6902;SDS011;20232;49.408;8.702;2022-11-15T13:44:55;3.47;;;2.73;;
6902;SDS011;20232;49.408;8.702;2022-11-15T13:47:22;3.87;;;3.10;;
6902;SDS011;20232;49.408;8.702;2022-11-15T13:49:57;5.43;;;3.20;;
6902;SDS011;20232;49.408;8.702;2022-11-15T13:52:26;3.40;;;2.83;;
6902;SDS011;20232;49.408;8.702;2022-11-15T13:57:26;5.57;;;3.50;;
6902;SDS011;20232;49.408;8.702;2022-11-15T13:59:59;3.67;;;2.97;;
6902;SDS011;20232;49.408;8.702;2022-11-15T14:02:29;4.10;;;3.03;;
6902;SDS011;20232;49.408;8.702;2022-11-15T14:05:16;3.93;;;2.87;;
6902;SDS011;20232;49.408;8.702;2022-11-15T14:10:30;4.53;;;2.87;;
6902;SDS011;20232;49.408;8.702;2022-11-15T14:12:58;3.50;;;3.20;;
6902;SDS011;20232;49.408;8.702;2022-11-15T14:15:34;3.60;;;3.23;;
6902;SDS011;20232;49.408;8.702;2022-11-15T14:18:01;5.10;;;3.37;;
6902;SDS011;20232;49.408;8.702;2022-11-15T14:20:28;8.10;;;3.47;;
6902;SDS011;20232;49.408;8.702;2022-11-15T14:23:01;3.93;;;3.47;;
6902;SDS011;20232;49.408;8.702;2022-11-15T14:25:35;5.50;;;3.00;;
6902;SDS011;20232;49.408;8.702;2022-11-15T14:30:47;6.30;;;3.40;;
6902;SDS011;20232;49.408;8.702;2022-11-15T14:33:34;5.87;;;3.40;;
6902;SDS011;20232;49.408;8.702;2022-11-15T14:36:19;3.37;;;2.97;;
6902;SDS011;20232;49.408;8.702;2022-11-15T14:38:46;5.00;;;3.53;;
6902;SDS011;20232;49.408;8.702;2022-11-15T14:41:19;3.97;;;3.60;;
6902;SDS011;20232;49.408;8.702;2022-11-15T14:43:47;5.57;;;3.50;;
6902;SDS011;20232;49.408;8.702;2022-11-15T14:46:13;4.70;;;3.63;;
6902;SDS011;20232;49.408;8.702;2022-11-15T14:48:38;4.47;;;3.00;;
6902;SDS011;20232;49.408;8.702;2022-11-15T14:51:09;4.13;;;3.33;;
6902;SDS011;20232;49.408;8.702;2022-11-15T14:53:39;4.80;;;3.37;;
6902;SDS011;20232;49.408;8.702;2022-11-15T14:56:06;4.37;;;3.50;;
6902;SDS011;20232;49.408;8.702;2022-11-15T14:58:31;4.70;;;3.27;;
6902;SDS011;20232;49.408;8.702;2022-11-15T15:00:57;6.17;;;3.70;;
6902;SDS011;20232;49.408;8.702;2022-11-15T15:03:23;3.80;;;3.37;;
6902;SDS011;20232;49.408;8.702;2022-11-15T15:05:48;4.13;;;3.23;;
6902;SDS011;20232;49.408;8.702;2022-11-15T15:08:14;4.87;;;3.60;;
6902;SDS011;20232;49.408;8.702;2022-11-15T15:10:43;7.10;;;3.50;;
6902;SDS011;20232;49.408;8.702;2022-11-15T15:13:15;3.37;;;3.07;;
6902;SDS011;20232;49.408;8.702;2022-11-15T15:15:49;5.20;;;2.90;;
6902;SDS011;20232;49.408;8.702;2022-11-15T15:18:16;4.63;;;3.27;;
6902;SDS011;20232;49.408;8.702;2022-11-15T15:20:43;5.47;;;3.27;;
6902;SDS011;20232;49.408;8.702;2022-11-15T15:23:14;3.57;;;3.27;;
6902;SDS011;20232;49.408;8.702;2022-11-15T15:25:41;4.43;;;2.93;;
6902;SDS011;20232;49.408;8.702;2022-11-15T15:28:08;4.33;;;3.10;;
6902;SDS011;20232;49.408;8.702;2022-11-15T15:30:34;3.60;;;3.13;;
6902;SDS011;20232;49.408;8.702;2022-11-15T15:32:59;4.10;;;3.30;;
6902;SDS011;20232;49.408;8.702;2022-11-15T15:35:26;4.83;;;3.50;;
6902;SDS011;20232;49.408;8.702;2022-11-15T15:37:55;4.40;;;3.27;;
6902;SDS011;20232;49.408;8.702;2022-11-15T15:40:21;4.60;;;3.47;;
6902;SDS011;20232;49.408;8.702;2022-11-15T15:42:48;4.70;;;3.40;;
6902;SDS011;20232;49.408;8.702;2022-11-15T15:45:15;3.50;;;3.00;;
6902;SDS011;20232;49.408;8.702;2022-11-15T15:47:41;5.07;;;3.40;;
6902;SDS011;20232;49.408;8.702;2022-11-15T15:52:52;5.43;;;3.50;;
6902;SDS011;20232;49.408;8.702;2022-11-15T15:55:19;3.50;;;3.20;;
6902;SDS011;20232;49.408;8.702;2022-11-15T15:57:45;6.07;;;3.60;;
6902;SDS011;20232;49.408;8.702;2022-11-15T16:00:11;6.63;;;3.70;;
6902;SDS011;20232;49.408;8.702;2022-11-15T16:02:37;4.70;;;3.57;;
6902;SDS011;20232;49.408;8.702;2022-11-15T16:05:03;6.27;;;3.50;;
6902;SDS011;20232;49.408;8.702;2022-11-15T16:07:29;6.60;;;3.67;;
6902;SDS011;20232;49.408;8.702;2022-11-15T16:09:55;4.83;;;3.70;;
6902;SDS011;20232;49.408;8.702;2022-11-15T16:12:27;4.47;;;3.57;;
6902;SDS011;20232;49.408;8.702;2022-11-15T16:14:59;6.43;;;3.57;;
6902;SDS011;20232;49.408;8.702;2022-11-15T16:17:37;5.80;;;3.50;;
6902;SDS011;20232;49.408;8.702;2022-11-15T16:20:06;7.53;;;3.70;;
6902;SDS011;20232;49.408;8.702;2022-11-15T16:22:39;5.10;;;3.63;;
6902;SDS011;20232;49.408;8.702;2022-11-15T16:25:05;4.70;;;3.53;;
6902;SDS011;20232;49.408;8.702;2022-11-15T16:27:30;5.93;;;3.80;;
6902;SDS011;20232;49.408;8.702;2022-11-15T16:29:56;6.20;;;3.80;;
6902;SDS011;20232;49.408;8.702;2022-11-15T16:32:21;5.43;;;3.40;;
6902;SDS011;20232;49.408;8.702;2022-11-15T16:34:47;5.50;;;4.40;;
6902;SDS011;20232;49.408;8.702;2022-11-15T16:37:23;5.50;;;4.00;;
6902;SDS011;20232;49.408;8.702;2022-11-15T16:39:48;4.07;;;3.50;;
6902;SDS011;20232;49.408;8.702;2022-11-15T16:42:14;4.17;;;3.60;;
6902;SDS011;20232;49.408;8.702;2022-11-15T16:44:41;5.13;;;3.60;;
6902;SDS011;20232;49.408;8.702;2022-11-15T16:47:13;5.60;;;3.20;;
6902;SDS011;20232;49.408;8.702;2022-11-15T16:49:43;6.63;;;3.93;;
6902;SDS011;20232;49.408;8.702;2022-11-15T16:52:09;5.60;;;4.30;;
6902;SDS011;20232;49.408;8.702;2022-11-15T16:54:35;5.20;;;3.93;;
6902;SDS011;20232;49.408;8.702;2022-11-15T16:57:00;6.10;;;3.77;;
6902;SDS011;20232;49.408;8.702;2022-11-15T16:59:26;6.30;;;4.03;;
6902;SDS011;20232;49.408;8.702;2022-11-15T17:01:52;5.50;;;4.20;;
6902;SDS011;20232;49.408;8.702;2022-11-15T17:04:18;4.60;;;3.63;;
6902;SDS011;20232;49.408;8.702;2022-11-15T17:06:45;8.00;;;3.90;;
6902;SDS011;20232;49.408;8.702;2022-11-15T17:09:12;6.57;;;3.60;;
6902;SDS011;20232;49.408;8.702;2022-11-15T17:11:41;4.40;;;3.83;;
6902;SDS011;20232;49.408;8.702;2022-11-15T17:14:07;3.70;;;3.40;;
6902;SDS011;20232;49.408;8.702;2022-11-15T17:16:33;5.93;;;3.97;;
6902;SDS011;20232;49.408;8.702;2022-11-15T17:19:00;6.77;;;3.63;;
6902;SDS011;20232;49.408;8.702;2022-11-15T17:21:25;4.17;;;3.47;;
6902;SDS011;20232;49.408;8.702;2022-11-15T17:23:52;4.73;;;3.50;;
6902;SDS011;20232;49.408;8.702;2022-11-15T17:26:18;4.60;;;3.47;;
6902;SDS011;20232;49.408;8.702;2022-11-15T17:28:44;4.20;;;3.67;;
6902;SDS011;20232;49.408;8.702;2022-11-15T17:31:11;6.87;;;3.80;;
6902;SDS011;20232;49.408;8.702;2022-11-15T17:33:38;9.80;;;7.87;;
6902;SDS011;20232;49.408;8.702;2022-11-15T17:36:06;5.53;;;4.53;;
6902;SDS011;20232;49.408;8.702;2022-11-15T17:38:34;6.43;;;5.20;;
6902;SDS011;20232;49.408;8.702;2022-11-15T17:41:08;7.47;;;4.50;;
6902;SDS011;20232;49.408;8.702;2022-11-15T17:43:39;8.20;;;6.23;;
6902;SDS011;20232;49.408;8.702;2022-11-15T17:46:06;8.50;;;5.30;;
6902;SDS011;20232;49.408;8.702;2022-11-15T17:48:33;9.17;;;5.50;;
6902;SDS011;20232;49.408;8.702;2022-11-15T17:50:59;10.37;;;5.20;;
6902;SDS011;20232;49.408;8.702;2022-11-15T17:53:26;7.80;;;4.30;;
6902;SDS011;20232;49.408;8.702;2022-11-15T17:55:58;7.97;;;4.30;;
6902;SDS011;20232;49.408;8.702;2022-11-15T17:58:34;4.87;;;4.30;;
6902;SDS011;20232;49.408;8.702;2022-11-15T18:01:04;7.97;;;4.67;;
6902;SDS011;20232;49.408;8.702;2022-11-15T18:03:37;5.43;;;4.50;;
6902;SDS011;20232;49.408;8.702;2022-11-15T18:06:03;5.87;;;4.17;;
6902;SDS011;20232;49.408;8.702;2022-11-15T18:08:30;5.97;;;4.10;;
6902;SDS011;20232;49.408;8.702;2022-11-15T18:13:35;4.53;;;3.87;;
6902;SDS011;20232;49.408;8.702;2022-11-15T18:16:05;7.13;;;3.73;;
6902;SDS011;20232;49.408;8.702;2022-11-15T18:18:37;5.17;;;3.87;;
6902;SDS011;20232;49.408;8.702;2022-11-15T18:23:33;6.37;;;3.80;;
6902;SDS011;20232;49.408;8.702;2022-11-15T18:25:59;6.60;;;3.67;;
6902;SDS011;20232;49.408;8.702;2022-11-15T18:28:32;5.90;;;4.17;;
6902;SDS011;20232;49.408;8.702;2022-11-15T18:30:59;5.93;;;4.33;;
6902;SDS011;20232;49.408;8.702;2022-11-15T18:33:26;6.70;;;5.10;;
6902;SDS011;20232;49.408;8.702;2022-11-15T18:35:59;8.67;;;5.00;;
6902;SDS011;20232;49.408;8.702;2022-11-15T18:38:26;6.37;;;4.60;;
6902;SDS011;20232;49.408;8.702;2022-11-15T18:40:55;5.27;;;4.13;;
6902;SDS011;20232;49.408;8.702;2022-11-15T18:43:21;7.13;;;5.23;;
6902;SDS011;20232;49.408;8.702;2022-11-15T18:45:47;11.57;;;4.87;;
6902;SDS011;20232;49.408;8.702;2022-11-15T18:48:15;8.97;;;4.80;;
6902;SDS011;20232;49.408;8.702;2022-11-15T18:50:41;6.60;;;4.80;;
6902;SDS011;20232;49.408;8.702;2022-11-15T18:53:06;6.87;;;4.87;;
6902;SDS011;20232;49.408;8.702;2022-11-15T18:55:32;6.67;;;5.00;;
6902;SDS011;20232;49.408;8.702;2022-11-15T18:57:57;7.23;;;5.10;;
6902;SDS011;20232;49.408;8.702;2022-11-15T19:00:23;8.30;;;5.10;;
6902;SDS011;20232;49.408;8.702;2022-11-15T19:02:48;7.37;;;5.33;;
6902;SDS011;20232;49.408;8.702;2022-11-15T19:05:14;6.13;;;5.07;;
6902;SDS011;20232;49.408;8.702;2022-11-15T19:07:42;6.07;;;5.10;;
6902;SDS011;20232;49.408;8.702;2022-11-15T19:10:11;7.37;;;5.93;;
6902;SDS011;20232;49.408;8.702;2022-11-15T19:12:36;7.60;;;5.80;;
6902;SDS011;20232;49.408;8.702;2022-11-15T19:15:02;8.07;;;5.37;;
6902;SDS011;20232;49.408;8.702;2022-11-15T19:17:28;9.10;;;5.67;;
6902;SDS011;20232;49.408;8.702;2022-11-15T19:19:53;8.27;;;5.77;;
6902;SDS011;20232;49.408;8.702;2022-11-15T19:22:19;9.77;;;5.77;;
6902;SDS011;20232;49.408;8.702;2022-11-15T19:24:44;7.37;;;6.07;;
6902;SDS011;20232;49.408;8.702;2022-11-15T19:27:10;8.90;;;6.10;;
6902;SDS011;20232;49.408;8.702;2022-11-15T19:29:35;7.37;;;5.53;;
6902;SDS011;20232;49.408;8.702;2022-11-15T19:32:01;8.33;;;5.80;;
6902;SDS011;20232;49.408;8.702;2022-11-15T19:34:29;8.73;;;6.30;;
6902;SDS011;20232;49.408;8.702;2022-11-15T19:36:54;6.43;;;5.83;;
6902;SDS011;20232;49.408;8.702;2022-11-15T19:39:20;7.67;;;5.57;;
6902;SDS011;20232;49.408;8.702;2022-11-15T19:41:45;8.63;;;6.00;;
6902;SDS011;20232;49.408;8.702;2022-11-15T19:44:12;7.90;;;5.60;;
6902;SDS011;20232;49.408;8.702;2022-11-15T19:46:38;6.67;;;5.47;;
6902;SDS011;20232;49.408;8.702;2022-11-15T19:49:04;6.47;;;5.27;;
6902;SDS011;20232;49.408;8.702;2022-11-15T19:51:34;7.70;;;5.50;;
6902;SDS011;20232;49.408;8.702;2022-11-15T19:54:01;9.07;;;5.83;;
6902;SDS011;20232;49.408;8.702;2022-11-15T19:56:30;7.53;;;5.93;;
6902;SDS011;20232;49.408;8.702;2022-11-15T19:58:57;6.97;;;5.20;;
6902;SDS011;20232;49.408;8.702;2022-11-15T20:01:24;10.57;;;6.03;;
6902;SDS011;20232;49.408;8.702;2022-11-15T20:03:51;9.47;;;5.33;;
6902;SDS011;20232;49.408;8.702;2022-11-15T20:06:23;7.57;;;5.43;;
6902;SDS011;20232;49.408;8.702;2022-11-15T20:08:51;10.47;;;6.27;;
6902;SDS011;20232;49.408;8.702;2022-11-15T20:11:17;8.17;;;6.57;;
6902;SDS011;20232;49.408;8.702;2022-11-15T20:13:43;7.47;;;6.17;;
6902;SDS011;20232;49.408;8.702;2022-11-15T20:16:13;7.13;;;5.70;;
6902;SDS011;20232;49.408;8.702;2022-11-15T20:18:41;8.23;;;5.63;;
6902;SDS011;20232;49.408;8.702;2022-11-15T20:21:07;8.10;;;6.00;;
6902;SDS011;20232;49.408;8.702;2022-11-15T20:23:33;7.30;;;6.27;;
6902;SDS011;20232;49.408;8.702;2022-11-15T20:25:59;8.63;;;6.30;;
6902;SDS011;20232;49.408;8.702;2022-11-15T20:28:25;9.97;;;6.50;;
6902;SDS011;20232;49.408;8.702;2022-11-15T20:30:53;7.73;;;5.93;;
6902;SDS011;20232;49.408;8.702;2022-11-15T20:33:20;9.97;;;6.50;;
6902;SDS011;20232;49.408;8.702;2022-11-15T20:35:46;9.13;;;5.93;;
6902;SDS011;20232;49.408;8.702;2022-11-15T20:38:12;13.43;;;6.37;;
6902;SDS011;20232;49.408;8.702;2022-11-15T20:40:38;7.43;;;5.90;;
6902;SDS011;20232;49.408;8.702;2022-11-15T20:43:04;7.90;;;6.67;;
6902;SDS011;20232;49.408;8.702;2022-11-15T20:45:31;10.07;;;6.77;;
6902;SDS011;20232;49.408;8.702;2022-11-15T20:47:57;8.57;;;6.40;;
6902;SDS011;20232;49.408;8.702;2022-11-15T20:50:23;7.10;;;5.97;;
6902;SDS011;20232;49.408;8.702;2022-11-15T20:52:50;6.80;;;5.73;;
6902;SDS011;20232;49.408;8.702;2022-11-15T20:55:16;7.50;;;6.20;;
6902;SDS011;20232;49.408;8.702;2022-11-15T20:57:42;7.33;;;5.50;;
6902;SDS011;20232;49.408;8.702;2022-11-15T21:00:08;8.10;;;5.63;;
6902;SDS011;20232;49.408;8.702;2022-11-15T21:02:34;7.30;;;6.20;;
6902;SDS011;20232;49.408;8.702;2022-11-15T21:05:00;8.60;;;5.90;;
6902;SDS011;20232;49.408;8.702;2022-11-15T21:07:25;9.23;;;6.00;;
6902;SDS011;20232;49.408;8.702;2022-11-15T21:09:51;8.20;;;6.40;;
6902;SDS011;20232;49.408;8.702;2022-11-15T21:12:35;8.87;;;6.40;;
6902;SDS011;20232;49.408;8.702;2022-11-15T21:15:01;7.17;;;6.27;;
6902;SDS011;20232;49.408;8.702;2022-11-15T21:17:27;7.00;;;5.53;;
6902;SDS011;20232;49.408;8.702;2022-11-15T21:19:53;8.97;;;6.77;;
6902;SDS011;20232;49.408;8.702;2022-11-15T21:22:19;9.10;;;6.60;;
6902;SDS011;20232;49.408;8.702;2022-11-15T21:24:44;6.80;;;6.13;;
6902;SDS011;20232;49.408;8.702;2022-11-15T21:27:10;9.20;;;6.30;;
6902;SDS011;20232;49.408;8.702;2022-11-15T21:29:36;8.27;;;6.20;;
6902;SDS011;20232;49.408;8.702;2022-11-15T21:32:02;8.97;;;6.57;;
6902;SDS011;20232;49.408;8.702;2022-11-15T21:34:29;9.23;;;6.13;;